Time;durP1;ratioP1;P1;durP2;ratioP2;P2;SDS_P1;SDS_P2;PMS_P1;PMS_P2;Temp;Humidity;BMP_temperature;BMP_pressure;BME280_temperature;BME280_humidity;BME280_pressure;Samples;Min_cycle;Max_cycle;Signal;HPM_P1;HPM_P2
2023/05/16 00:00:41;;;;;;;2.47;2.00;;;12.70;99.90;;;;;;5033717;28;20202;-78
2023/05/16 00:03:10;;;;;;;1.80;1.70;;;12.70;99.90;;;;;;5032867;28;20181;-78
2023/05/16 00:05:36;;;;;;;2.03;1.93;;;12.70;99.90;;;;;;5033980;28;20627;-80
2023/05/16 00:08:02;;;;;;;3.03;1.73;;;12.70;99.90;;;;;;5033966;28;20285;-80
2023/05/16 00:10:28;;;;;;;1.90;1.80;;;12.70;99.90;;;;;;5034040;28;20177;-80
2023/05/16 00:12:55;;;;;;;2.07;1.90;;;12.70;99.90;;;;;;5033986;28;20180;-80
2023/05/16 00:15:22;;;;;;;2.30;1.80;;;12.70;99.90;;;;;;5034078;28;20563;-79
2023/05/16 00:17:48;;;;;;;1.73;1.63;;;12.70;99.90;;;;;;5038038;28;20248;-78
2023/05/16 00:20:16;;;;;;;2.80;1.97;;;12.70;99.90;;;;;;5032985;28;20196;-80
2023/05/16 00:22:42;;;;;;;1.70;1.70;;;12.60;99.90;;;;;;5035730;28;20180;-81
2023/05/16 00:25:08;;;;;;;1.83;1.73;;;12.60;99.90;;;;;;5034116;28;20181;-80
2023/05/16 00:27:35;;;;;;;1.80;1.80;;;12.60;99.90;;;;;;5033763;28;20533;-79
2023/05/16 00:30:05;;;;;;;1.60;1.60;;;12.60;99.90;;;;;;5033805;28;20570;-78
2023/05/16 00:32:31;;;;;;;2.27;1.70;;;12.50;99.90;;;;;;5035016;28;20636;-79
2023/05/16 00:34:56;;;;;;;2.07;1.97;;;12.50;99.90;;;;;;5035092;28;20169;-80
2023/05/16 00:37:22;;;;;;;2.10;2.00;;;12.50;99.90;;;;;;5033378;28;20183;-80
2023/05/16 00:39:48;;;;;;;1.90;1.80;;;12.50;99.90;;;;;;5033370;28;20219;-80
2023/05/16 00:42:14;;;;;;;1.67;1.67;;;12.50;99.90;;;;;;5033432;28;20672;-78
2023/05/16 00:44:40;;;;;;;2.20;1.87;;;12.50;99.90;;;;;;5033808;28;20679;-79
2023/05/16 00:47:07;;;;;;;1.90;1.80;;;12.60;99.90;;;;;;5033538;28;20168;-80
2023/05/16 00:49:32;;;;;;;2.40;2.20;;;12.60;99.90;;;;;;5034279;28;20172;-79
2023/05/16 00:51:58;;;;;;;2.07;1.97;;;12.50;99.90;;;;;;5035140;28;20260;-80
2023/05/16 00:54:28;;;;;;;2.00;1.90;;;12.50;99.90;;;;;;5036131;28;20200;-79
2023/05/16 00:56:55;;;;;;;1.80;1.70;;;12.50;99.90;;;;;;5036737;28;20229;-78
2023/05/16 00:59:21;;;;;;;2.13;2.00;;;12.40;99.90;;;;;;5033871;28;20240;-80
2023/05/16 01:01:47;;;;;;;2.10;1.90;;;12.50;99.90;;;;;;5032970;28;20586;-79
2023/05/16 01:04:13;;;;;;;2.70;2.07;;;12.40;99.90;;;;;;5033216;28;20631;-78
2023/05/16 01:06:40;;;;;;;1.70;1.70;;;12.50;99.90;;;;;;5032961;28;20186;-78
2023/05/16 01:09:09;;;;;;;2.30;2.20;;;12.50;99.90;;;;;;5031611;28;20235;-82
2023/05/16 01:12:00;;;;;;;2.30;2.20;;;12.40;99.90;;;;;;5032760;28;20186;-79
2023/05/16 01:14:38;;;;;;;1.93;1.83;;;12.40;99.90;;;;;;5033056;28;20259;-79
2023/05/16 01:17:28;;;;;;;2.23;2.13;;;12.40;99.90;;;;;;5034862;28;20194;-79
2023/05/16 01:20:24;;;;;;;3.33;2.20;;;12.40;99.90;;;;;;5033224;28;20187;-80
2023/05/16 01:23:10;;;;;;;4.93;2.57;;;12.40;99.90;;;;;;5033040;28;20535;-79
2023/05/16 01:25:48;;;;;;;2.53;2.43;;;12.60;99.90;;;;;;5032791;28;20161;-80
2023/05/16 01:28:16;;;;;;;2.07;1.97;;;12.40;99.90;;;;;;5033069;28;20213;-78
2023/05/16 01:30:42;;;;;;;2.40;2.30;;;12.40;99.90;;;;;;5033077;28;20281;-80
2023/05/16 01:33:09;;;;;;;2.97;2.40;;;12.40;99.90;;;;;;5035664;28;20166;-79
2023/05/16 01:35:59;;;;;;;2.30;2.20;;;12.50;99.90;;;;;;5039210;28;20179;-79
2023/05/16 01:38:35;;;;;;;2.33;2.10;;;12.50;99.90;;;;;;5033076;28;20236;-79
2023/05/16 01:41:20;;;;;;;2.63;2.43;;;12.50;99.90;;;;;;5031694;28;20170;-81
2023/05/16 01:43:56;;;;;;;2.93;2.10;;;12.50;99.90;;;;;;5033170;28;20616;-80
2023/05/16 01:46:26;;;;;;;2.37;2.17;;;12.50;99.90;;;;;;5032730;28;20160;-81
2023/05/16 01:49:21;;;;;;;2.10;2.00;;;12.40;99.90;;;;;;5033156;28;20195;-79
2023/05/16 01:51:53;;;;;;;2.47;2.37;;;12.40;99.90;;;;;;5032660;28;20700;-81
2023/05/16 01:54:22;;;;;;;2.40;2.20;;;12.40;99.90;;;;;;5031653;28;20636;-79
2023/05/16 01:56:52;;;;;;;2.20;2.00;;;12.40;99.90;;;;;;5032655;28;20193;-79
2023/05/16 01:59:20;;;;;;;2.50;2.00;;;12.40;99.90;;;;;;5033052;28;20211;-78
2023/05/16 02:01:46;;;;;;;2.53;2.30;;;12.30;99.90;;;;;;5032564;28;20196;-80
2023/05/16 02:04:14;;;;;;;2.20;2.10;;;12.30;99.90;;;;;;5033582;28;20169;-79
2023/05/16 02:06:40;;;;;;;2.30;2.20;;;12.30;99.90;;;;;;5032885;28;20517;-80
2023/05/16 02:09:07;;;;;;;2.37;2.20;;;12.30;99.90;;;;;;5036591;28;20558;-81
2023/05/16 02:11:32;;;;;;;2.23;2.13;;;12.20;99.90;;;;;;5033582;28;20612;-80
2023/05/16 02:13:58;;;;;;;2.73;2.20;;;12.20;99.90;;;;;;5033089;28;20225;-79
2023/05/16 02:16:24;;;;;;;2.13;2.00;;;12.20;99.90;;;;;;5033651;28;20181;-79
2023/05/16 02:18:50;;;;;;;4.50;2.70;;;12.20;99.90;;;;;;5036719;28;20701;-78
2023/05/16 02:21:16;;;;;;;2.53;2.20;;;12.20;99.90;;;;;;5039045;28;20192;-81
2023/05/16 02:23:43;;;;;;;2.27;2.17;;;12.20;99.90;;;;;;5033416;28;20539;-80
2023/05/16 02:26:08;;;;;;;2.20;2.10;;;12.20;99.90;;;;;;5032439;28;20172;-78
2023/05/16 02:28:34;;;;;;;2.30;2.20;;;12.20;99.90;;;;;;5032227;28;20314;-79
2023/05/16 02:31:00;;;;;;;2.20;2.10;;;12.20;99.90;;;;;;5032040;28;20261;-80
2023/05/16 02:33:27;;;;;;;2.40;2.20;;;12.20;99.90;;;;;;5031860;28;20189;-79
2023/05/16 02:35:54;;;;;;;4.00;2.13;;;12.30;99.90;;;;;;5032018;28;20173;-81
2023/05/16 02:38:20;;;;;;;2.20;2.10;;;12.30;99.90;;;;;;5031874;28;20314;-79
2023/05/16 02:40:49;;;;;;;2.37;2.17;;;12.40;99.90;;;;;;5031912;28;20270;-80
2023/05/16 02:43:14;;;;;;;4.03;2.40;;;12.30;99.90;;;;;;5032212;28;20695;-79
2023/05/16 02:45:40;;;;;;;2.40;2.30;;;12.30;99.90;;;;;;5035689;28;20302;-80
2023/05/16 02:48:06;;;;;;;7.80;2.37;;;12.20;99.90;;;;;;5036144;28;20197;-79
2023/05/16 02:50:33;;;;;;;2.97;2.70;;;12.20;99.90;;;;;;5039732;28;20188;-80
2023/05/16 02:53:01;;;;;;;2.53;2.43;;;12.20;99.90;;;;;;5036631;28;20530;-79
2023/05/16 02:55:27;;;;;;;2.43;2.23;;;12.20;99.90;;;;;;5035961;28;20187;-79
2023/05/16 02:57:53;;;;;;;2.43;2.33;;;12.20;99.90;;;;;;5034040;28;20691;-78
2023/05/16 03:00:19;;;;;;;2.33;2.10;;;12.20;99.90;;;;;;5035806;28;20212;-78
2023/05/16 03:02:45;;;;;;;2.80;2.60;;;12.20;99.90;;;;;;5035137;28;20176;-78
2023/05/16 03:05:11;;;;;;;2.20;2.10;;;12.30;99.90;;;;;;5035607;28;20179;-78
2023/05/16 03:07:37;;;;;;;2.53;2.30;;;12.30;99.90;;;;;;5035188;28;20227;-80
2023/05/16 03:10:04;;;;;;;2.50;2.40;;;12.30;99.90;;;;;;5035581;28;20178;-80
2023/05/16 03:12:31;;;;;;;2.70;2.60;;;12.40;99.90;;;;;;5035534;28;20274;-79
2023/05/16 03:14:57;;;;;;;2.27;2.17;;;12.30;99.90;;;;;;5034296;28;20187;-79
2023/05/16 03:17:23;;;;;;;3.20;2.10;;;12.40;99.90;;;;;;5035238;28;20184;-80
2023/05/16 03:19:49;;;;;;;2.53;2.40;;;12.30;99.90;;;;;;5035548;28;20605;-81
2023/05/16 03:22:14;;;;;;;2.20;2.10;;;12.40;99.90;;;;;;5034884;28;20228;-79
2023/05/16 03:24:40;;;;;;;2.50;2.37;;;12.50;99.90;;;;;;5035247;28;20188;-80
2023/05/16 03:27:06;;;;;;;2.70;2.50;;;12.50;99.90;;;;;;5035388;28;20595;-78
2023/05/16 03:29:32;;;;;;;2.77;2.60;;;12.50;99.90;;;;;;5036394;28;20172;-80
2023/05/16 03:31:58;;;;;;;2.60;2.50;;;12.50;99.90;;;;;;5035237;28;20186;-79
2023/05/16 03:34:24;;;;;;;3.10;2.70;;;12.50;99.90;;;;;;5035681;28;20172;-80
2023/05/16 03:36:50;;;;;;;2.33;2.13;;;12.60;99.90;;;;;;5033859;28;20388;-79
2023/05/16 03:39:16;;;;;;;2.20;2.10;;;12.60;99.90;;;;;;5035402;28;20216;-79
2023/05/16 03:41:42;;;;;;;4.03;2.10;;;12.60;99.90;;;;;;5036934;28;20191;-78
2023/05/16 03:44:08;;;;;;;2.30;2.20;;;12.60;99.90;;;;;;5038807;28;20187;-80
2023/05/16 03:46:34;;;;;;;3.07;2.27;;;12.60;99.90;;;;;;5042352;28;20253;-78
2023/05/16 03:49:00;;;;;;;2.83;2.57;;;12.60;99.90;;;;;;5035767;28;20197;-79
2023/05/16 03:51:27;;;;;;;2.43;2.23;;;12.50;99.90;;;;;;5035577;28;20309;-79
2023/05/16 03:53:53;;;;;;;2.60;2.40;;;12.60;99.90;;;;;;5034911;28;20180;-79
2023/05/16 03:56:20;;;;;;;2.57;2.37;;;12.50;99.90;;;;;;5034767;28;20173;-80
2023/05/16 03:58:46;;;;;;;2.83;2.40;;;12.60;99.90;;;;;;5034603;28;20204;-78
2023/05/16 04:01:12;;;;;;;2.13;2.03;;;12.60;99.90;;;;;;5034820;28;20186;-78
2023/05/16 04:03:38;;;;;;;6.10;2.60;;;12.60;99.90;;;;;;5034661;28;20256;-79
2023/05/16 04:06:05;;;;;;;2.50;2.37;;;12.50;99.90;;;;;;5038957;28;20244;-79
2023/05/16 04:08:31;;;;;;;2.57;2.47;;;12.50;99.90;;;;;;5038876;28;20250;-79
2023/05/16 04:10:57;;;;;;;2.80;2.60;;;12.50;99.90;;;;;;5034454;28;20216;-80
2023/05/16 04:13:23;;;;;;;2.60;2.40;;;12.50;99.90;;;;;;5033957;28;20226;-78
2023/05/16 04:15:48;;;;;;;2.40;2.30;;;12.60;99.90;;;;;;5034276;28;20184;-79
2023/05/16 04:18:14;;;;;;;2.23;2.13;;;12.50;99.90;;;;;;5033100;28;20216;-79
2023/05/16 04:20:43;;;;;;;3.07;2.87;;;12.50;99.90;;;;;;5034095;28;20183;-79
2023/05/16 04:23:12;;;;;;;2.37;2.23;;;12.50;99.90;;;;;;5034302;28;20244;-79
2023/05/16 04:25:38;;;;;;;2.97;2.50;;;12.60;99.90;;;;;;5033884;28;20195;-82
2023/05/16 04:28:04;;;;;;;3.40;2.50;;;12.60;99.90;;;;;;5034194;28;20229;-78
2023/05/16 04:30:30;;;;;;;3.07;2.60;;;12.60;99.90;;;;;;5034084;28;20386;-79
2023/05/16 04:32:58;;;;;;;3.10;2.80;;;12.70;99.90;;;;;;5034150;28;20630;-79
2023/05/16 04:35:24;;;;;;;2.90;2.70;;;12.70;99.90;;;;;;5033546;28;20172;-79
2023/05/16 04:37:50;;;;;;;4.17;2.60;;;12.80;99.90;;;;;;5033337;28;20180;-79
2023/05/16 04:40:16;;;;;;;4.93;2.67;;;12.70;99.90;;;;;;5033367;28;20539;-80
2023/05/16 04:42:41;;;;;;;2.90;2.67;;;12.70;99.90;;;;;;5032238;28;20176;-79
2023/05/16 04:45:10;;;;;;;2.70;2.50;;;12.70;99.90;;;;;;5033511;28;20278;-79
2023/05/16 04:47:36;;;;;;;2.80;2.60;;;12.80;99.90;;;;;;5032777;28;20234;-78
2023/05/16 04:50:04;;;;;;;3.30;2.47;;;12.70;99.90;;;;;;5037943;28;20712;-80
2023/05/16 04:52:29;;;;;;;2.40;2.20;;;12.70;99.90;;;;;;5035243;28;20586;-80
2023/05/16 04:54:55;;;;;;;2.60;2.47;;;12.80;99.90;;;;;;5034301;28;20176;-80
2023/05/16 04:57:21;;;;;;;3.00;2.77;;;12.70;99.90;;;;;;5034182;28;20184;-80
2023/05/16 04:59:47;;;;;;;3.10;2.90;;;12.70;99.90;;;;;;5033718;28;20200;-78
2023/05/16 05:02:12;;;;;;;3.33;2.93;;;12.70;99.90;;;;;;5034083;28;20254;-79
2023/05/16 05:04:38;;;;;;;3.37;2.63;;;12.60;99.90;;;;;;5034469;28;20173;-81
2023/05/16 05:07:04;;;;;;;2.63;2.43;;;12.50;99.90;;;;;;5034266;28;20172;-80
2023/05/16 05:09:30;;;;;;;3.07;2.80;;;12.50;99.90;;;;;;5040724;28;20233;-79
2023/05/16 05:11:55;;;;;;;2.83;2.57;;;12.40;99.90;;;;;;5043704;28;20176;-78
2023/05/16 05:14:21;;;;;;;2.20;2.10;;;12.30;99.90;;;;;;5034578;28;20188;-81
2023/05/16 05:16:47;;;;;;;2.20;2.10;;;12.30;99.90;;;;;;5032597;28;20691;-81
2023/05/16 05:19:12;;;;;;;2.57;2.40;;;12.30;99.90;;;;;;5032664;28;20217;-80
2023/05/16 05:21:38;;;;;;;4.90;2.60;;;12.30;99.90;;;;;;5032820;28;20272;-79
2023/05/16 05:24:04;;;;;;;2.20;2.00;;;12.40;99.90;;;;;;5034216;28;20184;-79
2023/05/16 05:26:30;;;;;;;2.37;2.17;;;12.30;99.90;;;;;;5032962;28;20188;-79
2023/05/16 05:28:56;;;;;;;2.60;2.40;;;12.30;99.90;;;;;;5032968;28;20184;-79
2023/05/16 05:31:21;;;;;;;2.87;2.67;;;12.20;99.90;;;;;;5032725;28;20183;-79
2023/05/16 05:33:47;;;;;;;2.50;2.40;;;12.20;99.90;;;;;;5033175;28;20252;-80
2023/05/16 05:36:13;;;;;;;2.90;2.60;;;12.20;99.90;;;;;;5032359;28;20624;-79
2023/05/16 05:38:38;;;;;;;2.80;2.60;;;12.30;99.90;;;;;;5032634;28;20239;-81
2023/05/16 05:41:05;;;;;;;3.07;2.80;;;12.30;99.90;;;;;;5032487;28;20191;-79
2023/05/16 05:43:31;;;;;;;4.57;2.43;;;12.30;99.90;;;;;;5033306;28;20248;-79
2023/05/16 05:45:57;;;;;;;5.17;2.50;;;12.20;99.90;;;;;;5032621;28;20631;-78
2023/05/16 05:48:23;;;;;;;5.57;3.03;;;12.20;99.90;;;;;;5033106;28;20180;-79
2023/05/16 05:50:49;;;;;;;4.30;3.53;;;12.20;99.90;;;;;;5033019;28;20181;-80
2023/05/16 05:53:15;;;;;;;7.60;3.80;;;12.20;99.90;;;;;;5033254;28;20291;-80
2023/05/16 05:55:41;;;;;;;4.27;3.87;;;12.20;99.90;;;;;;5032819;28;20180;-79
2023/05/16 05:58:07;;;;;;;3.20;2.93;;;12.10;99.90;;;;;;5033169;28;20218;-80
2023/05/16 06:00:32;;;;;;;4.37;3.07;;;12.10;99.90;;;;;;5033354;28;20176;-80
2023/05/16 06:02:58;;;;;;;3.63;3.40;;;12.10;99.90;;;;;;5031249;28;20183;-78
2023/05/16 06:05:24;;;;;;;3.20;3.00;;;12.00;99.90;;;;;;5032652;28;20171;-79
2023/05/16 06:07:50;;;;;;;3.43;2.73;;;12.10;99.90;;;;;;5033173;28;20691;-79
2023/05/16 06:10:15;;;;;;;3.63;3.00;;;12.10;99.90;;;;;;5032598;28;20263;-80
2023/05/16 06:12:41;;;;;;;3.30;3.03;;;12.20;99.90;;;;;;5033821;28;20177;-79
2023/05/16 06:15:08;;;;;;;4.13;3.23;;;12.30;99.90;;;;;;5034481;28;20255;-79
2023/05/16 06:17:33;;;;;;;3.07;2.87;;;12.30;99.90;;;;;;5037098;28;20599;-78
2023/05/16 06:19:59;;;;;;;3.47;3.17;;;12.50;99.90;;;;;;5054713;28;20215;-78
2023/05/16 06:22:25;;;;;;;4.43;3.20;;;12.40;99.90;;;;;;5045448;28;20170;-78
2023/05/16 06:24:50;;;;;;;3.33;3.13;;;12.50;99.90;;;;;;5039345;28;20184;-79
2023/05/16 06:27:16;;;;;;;3.10;2.80;;;12.40;99.90;;;;;;5037347;28;20184;-79
2023/05/16 06:29:42;;;;;;;5.17;3.40;;;12.40;99.90;;;;;;5036934;28;20513;-79
2023/05/16 06:32:07;;;;;;;3.70;3.40;;;12.40;99.90;;;;;;5036850;28;20263;-80
2023/05/16 06:34:34;;;;;;;3.57;3.37;;;12.40;99.90;;;;;;5039647;28;20180;-81
2023/05/16 06:37:02;;;;;;;3.60;3.30;;;12.40;99.90;;;;;;5036529;28;20187;-79
2023/05/16 06:39:28;;;;;;;3.40;3.10;;;12.40;99.90;;;;;;5038682;28;20283;-80
2023/05/16 06:41:54;;;;;;;4.40;3.93;;;12.40;99.90;;;;;;5036369;28;20199;-80
2023/05/16 06:44:21;;;;;;;5.70;3.90;;;12.40;99.90;;;;;;5036207;28;20183;-80
2023/05/16 06:46:47;;;;;;;4.47;3.83;;;12.40;99.90;;;;;;5035962;28;20261;-78
2023/05/16 06:49:13;;;;;;;5.87;3.93;;;12.30;99.90;;;;;;5035015;28;20280;-80
2023/05/16 06:51:39;;;;;;;4.83;4.30;;;12.30;99.90;;;;;;5036258;28;20184;-79
2023/05/16 06:54:05;;;;;;;9.30;6.00;;;12.30;99.90;;;;;;5034789;28;20599;-80
2023/05/16 06:56:31;;;;;;;14.97;5.97;;;12.40;99.90;;;;;;5034581;28;20742;-79
2023/05/16 06:58:56;;;;;;;10.07;6.63;;;12.40;99.90;;;;;;5036021;28;20215;-79
2023/05/16 07:01:22;;;;;;;8.53;5.63;;;12.40;99.90;;;;;;5036104;28;20172;-78
2023/05/16 07:03:48;;;;;;;11.53;5.33;;;12.40;99.90;;;;;;5035678;28;20624;-80
2023/05/16 07:06:14;;;;;;;9.03;5.30;;;12.40;99.90;;;;;;5033984;28;20619;-78
2023/05/16 07:08:40;;;;;;;4.50;4.10;;;12.30;99.90;;;;;;5035427;28;20228;-80
2023/05/16 07:11:05;;;;;;;5.30;3.90;;;12.40;99.90;;;;;;5035647;28;20172;-79
2023/05/16 07:13:31;;;;;;;6.07;4.20;;;12.50;99.90;;;;;;5035595;28;20170;-79
2023/05/16 07:15:57;;;;;;;6.93;4.83;;;12.50;99.90;;;;;;5034858;28;20259;-79
2023/05/16 07:18:22;;;;;;;7.73;4.50;;;12.50;99.90;;;;;;5035448;28;20668;-78
2023/05/16 07:20:48;;;;;;;5.70;4.33;;;12.50;99.90;;;;;;5035685;28;20208;-78
2023/05/16 07:23:14;;;;;;;4.80;4.40;;;12.40;99.90;;;;;;5035288;28;20172;-77
2023/05/16 07:25:40;;;;;;;6.70;4.03;;;12.40;99.90;;;;;;5035330;28;20187;-78
2023/05/16 07:28:05;;;;;;;4.97;4.47;;;12.40;99.90;;;;;;5034667;28;20543;-78
2023/05/16 07:30:31;;;;;;;7.77;4.67;;;12.40;99.90;;;;;;5035692;28;20692;-78
2023/05/16 07:32:58;;;;;;;6.77;4.90;;;12.40;99.90;;;;;;5034601;28;20165;-78
2023/05/16 07:35:25;;;;;;;5.27;4.73;;;12.30;99.90;;;;;;5033525;28;20177;-78
2023/05/16 07:37:51;;;;;;;4.57;4.13;;;12.30;99.90;;;;;;5035043;28;20185;-79
2023/05/16 07:40:17;;;;;;;4.87;4.40;;;12.30;99.90;;;;;;5035145;28;20269;-79
2023/05/16 07:42:43;;;;;;;4.80;4.30;;;12.20;99.90;;;;;;5035437;28;20207;-78
2023/05/16 07:45:09;;;;;;;4.93;4.30;;;12.00;99.90;;;;;;5033774;28;20349;-79
2023/05/16 07:47:35;;;;;;;4.00;3.70;;;11.90;99.90;;;;;;5034963;28;20749;-78
2023/05/16 07:50:01;;;;;;;4.07;3.83;;;11.90;99.90;;;;;;5035262;28;20177;-78
2023/05/16 07:52:26;;;;;;;4.10;3.70;;;11.90;99.90;;;;;;5035551;28;20184;-78
2023/05/16 07:54:52;;;;;;;4.10;3.70;;;11.90;99.90;;;;;;5035358;28;20175;-79
2023/05/16 07:57:18;;;;;;;4.60;4.20;;;11.80;99.90;;;;;;5035647;28;20177;-78
2023/05/16 07:59:44;;;;;;;4.70;4.23;;;11.70;99.90;;;;;;5035947;28;20257;-80
2023/05/16 08:02:10;;;;;;;5.10;4.60;;;11.80;99.90;;;;;;5039954;28;20751;-78
2023/05/16 08:04:36;;;;;;;4.67;4.27;;;11.80;99.90;;;;;;5039471;28;20233;-79
2023/05/16 08:07:02;;;;;;;4.60;4.20;;;11.00;99.90;;;;;;5035556;28;20582;-77
2023/05/16 08:09:28;;;;;;;5.40;4.10;;;11.80;99.90;;;;;;5036850;28;20182;-79
2023/05/16 08:11:54;;;;;;;4.70;4.30;;;11.90;99.90;;;;;;5048537;28;20174;-79
2023/05/16 08:14:20;;;;;;;6.43;4.20;;;11.90;99.90;;;;;;5048978;28;20206;-78
2023/05/16 08:16:46;;;;;;;5.17;4.23;;;12.00;99.90;;;;;;5043350;28;20168;-80
2023/05/16 08:19:11;;;;;;;7.97;4.40;;;12.00;99.90;;;;;;5037714;28;20258;-79
2023/05/16 08:21:37;;;;;;;4.93;4.53;;;12.10;99.90;;;;;;5035545;28;20575;-78
2023/05/16 08:24:04;;;;;;;5.57;4.57;;;12.10;99.90;;;;;;5034937;28;20180;-79
2023/05/16 08:26:31;;;;;;;4.40;4.10;;;12.00;99.90;;;;;;5034093;28;20242;-80
2023/05/16 08:28:56;;;;;;;5.13;4.40;;;12.10;99.90;;;;;;5032462;28;20532;-79
2023/05/16 08:31:22;;;;;;;6.43;4.13;;;12.20;99.90;;;;;;5033893;28;20256;-79
2023/05/16 08:33:48;;;;;;;4.97;4.47;;;12.20;99.90;;;;;;5033818;28;20209;-78
2023/05/16 08:36:14;;;;;;;5.70;4.70;;;12.40;99.90;;;;;;5033660;28;20179;-80
2023/05/16 08:38:40;;;;;;;5.03;4.27;;;12.40;99.90;;;;;;5033520;28;20217;-79
2023/05/16 08:41:06;;;;;;;4.60;4.20;;;12.50;99.90;;;;;;5033021;28;20647;-79
2023/05/16 08:43:34;;;;;;;4.93;4.53;;;12.50;99.90;;;;;;5033957;28;20183;-78
2023/05/16 08:46:00;;;;;;;4.73;4.30;;;12.50;99.90;;;;;;5033511;28;20182;-81
2023/05/16 08:48:27;;;;;;;4.87;4.47;;;12.60;99.90;;;;;;5032479;28;20278;-80
2023/05/16 08:50:53;;;;;;;4.47;4.07;;;12.70;99.90;;;;;;5033891;28;20248;-77
2023/05/16 08:53:25;;;;;;;4.43;4.10;;;12.70;99.90;;;;;;5033986;28;20199;-78
2023/05/16 08:55:52;;;;;;;4.43;4.13;;;12.70;99.90;;;;;;5033615;28;20157;-78
2023/05/16 08:58:19;;;;;;;6.63;4.60;;;12.60;99.90;;;;;;5033376;28;20283;-79
2023/05/16 09:00:45;;;;;;;4.73;4.03;;;12.60;99.90;;;;;;5033414;28;20641;-78
2023/05/16 09:03:11;;;;;;;5.03;4.57;;;12.70;99.90;;;;;;5033455;28;20177;-76
2023/05/16 09:05:37;;;;;;;4.57;4.20;;;12.80;99.90;;;;;;5033144;28;20532;-78
2023/05/16 09:08:03;;;;;;;4.30;4.00;;;12.80;99.90;;;;;;5033052;28;20226;-77
2023/05/16 09:10:29;;;;;;;4.27;3.97;;;12.70;99.90;;;;;;5033424;28;20178;-78
2023/05/16 09:12:54;;;;;;;4.07;3.73;;;12.80;99.90;;;;;;5034539;28;20533;-78
2023/05/16 09:15:20;;;;;;;4.23;3.93;;;12.90;99.90;;;;;;5033797;28;20625;-78
2023/05/16 09:17:47;;;;;;;4.63;4.30;;;12.80;99.90;;;;;;5033378;28;20176;-79
2023/05/16 09:20:18;;;;;;;4.27;3.97;;;12.70;99.90;;;;;;5033320;28;20264;-79
2023/05/16 09:22:51;;;;;;;4.57;4.27;;;12.70;99.90;;;;;;5033318;28;20233;-78
2023/05/16 09:25:17;;;;;;;4.23;3.93;;;12.70;99.90;;;;;;5037139;28;20293;-79
2023/05/16 09:27:46;;;;;;;4.77;4.20;;;12.60;99.90;;;;;;5035639;28;20172;-78
2023/05/16 09:30:20;;;;;;;4.97;4.57;;;12.70;99.90;;;;;;5033303;28;20552;-78
2023/05/16 09:32:45;;;;;;;5.37;4.80;;;12.70;99.90;;;;;;5033316;28;20167;-79
2023/05/16 09:35:16;;;;;;;4.10;3.70;;;12.60;99.90;;;;;;5032737;28;20179;-78
2023/05/16 09:37:48;;;;;;;4.37;4.07;;;12.70;99.90;;;;;;5032710;28;20169;-77
2023/05/16 09:40:15;;;;;;;4.27;3.97;;;12.60;99.90;;;;;;5031408;28;20547;-78
2023/05/16 09:42:42;;;;;;;4.83;3.80;;;12.70;99.90;;;;;;5032965;28;20724;-78
2023/05/16 09:45:12;;;;;;;4.33;3.93;;;12.60;99.90;;;;;;5031476;28;20209;-80
2023/05/16 09:47:45;;;;;;;4.53;4.20;;;12.70;99.90;;;;;;5032563;28;20193;-79
2023/05/16 09:50:14;;;;;;;4.87;4.47;;;12.70;99.90;;;;;;5032300;28;20166;-78
2023/05/16 09:52:40;;;;;;;4.50;4.10;;;12.80;99.90;;;;;;5032458;28;20171;-78
2023/05/16 09:55:07;;;;;;;4.63;4.20;;;12.70;99.90;;;;;;5032581;28;20174;-79
2023/05/16 09:57:37;;;;;;;6.83;4.33;;;12.70;99.90;;;;;;5032404;28;20263;-79
2023/05/16 10:00:07;;;;;;;4.03;3.63;;;12.80;99.90;;;;;;5032893;28;20299;-79
2023/05/16 10:02:34;;;;;;;4.33;4.03;;;12.90;99.90;;;;;;5035865;28;20232;-81
2023/05/16 10:05:00;;;;;;;4.23;3.93;;;12.80;99.90;;;;;;5046925;28;20501;-78
2023/05/16 10:07:27;;;;;;;5.17;4.50;;;12.80;99.90;;;;;;5049928;28;20212;-78
2023/05/16 10:09:54;;;;;;;4.73;4.33;;;12.80;99.90;;;;;;5037486;28;20169;-79
2023/05/16 10:12:27;;;;;;;4.63;4.23;;;12.80;99.90;;;;;;5035540;28;20190;-79
2023/05/16 10:14:53;;;;;;;4.83;4.40;;;12.80;99.90;;;;;;5033566;28;20246;-79
2023/05/16 10:17:19;;;;;;;4.33;3.93;;;12.80;99.90;;;;;;5031167;28;20207;-77
2023/05/16 10:19:46;;;;;;;4.27;3.87;;;12.80;99.90;;;;;;5032509;28;20192;-80
2023/05/16 10:22:13;;;;;;;4.00;3.70;;;12.70;99.90;;;;;;5032472;28;20187;-79
2023/05/16 10:24:57;;;;;;;4.53;3.93;;;12.70;99.90;;;;;;5032498;28;20165;-78
2023/05/16 10:27:25;;;;;;;3.90;3.60;;;12.70;99.90;;;;;;5032125;28;20166;-78
2023/05/16 10:29:52;;;;;;;4.70;4.30;;;12.60;99.90;;;;;;5033749;28;20254;-79
2023/05/16 10:32:19;;;;;;;4.67;4.10;;;12.60;99.90;;;;;;5032887;28;20169;-78
2023/05/16 10:34:45;;;;;;;4.50;4.10;;;12.60;99.90;;;;;;5032604;28;20210;-79
2023/05/16 10:37:11;;;;;;;4.57;4.27;;;12.50;99.90;;;;;;5032642;28;20166;-77
2023/05/16 10:39:38;;;;;;;4.90;4.50;;;12.50;99.90;;;;;;5032681;28;20206;-79
2023/05/16 10:42:05;;;;;;;4.57;4.17;;;12.40;99.90;;;;;;5031288;28;20190;-78
2023/05/16 10:44:32;;;;;;;4.30;4.00;;;12.40;99.90;;;;;;5031278;28;20188;-78
2023/05/16 10:46:59;;;;;;;6.73;4.70;;;12.40;99.90;;;;;;5032915;28;20187;-80
2023/05/16 10:49:26;;;;;;;4.73;4.37;;;12.50;99.90;;;;;;5034361;28;20653;-79
2023/05/16 10:52:04;;;;;;;5.00;4.50;;;12.60;99.90;;;;;;5038084;28;20214;-79
2023/05/16 10:54:40;;;;;;;5.23;4.20;;;12.60;99.90;;;;;;5035472;28;20172;-79
2023/05/16 10:57:16;;;;;;;4.57;4.17;;;12.70;99.90;;;;;;5031740;28;20237;-78
2023/05/16 10:59:46;;;;;;;4.93;4.43;;;12.70;99.90;;;;;;5032008;28;20284;-79
2023/05/16 11:02:28;;;;;;;4.83;3.93;;;12.70;99.90;;;;;;5032149;28;20184;-77
2023/05/16 11:04:58;;;;;;;4.20;3.90;;;12.70;99.90;;;;;;5032241;28;20185;-79
2023/05/16 11:07:25;;;;;;;4.53;4.23;;;12.70;99.90;;;;;;5035158;28;20183;-78
2023/05/16 11:10:15;;;;;;;4.43;4.03;;;12.80;99.90;;;;;;5033932;28;20187;-79
2023/05/16 11:12:51;;;;;;;4.40;4.07;;;12.70;99.90;;;;;;5036034;28;20174;-77
2023/05/16 11:15:30;;;;;;;4.67;4.27;;;12.80;99.90;;;;;;5035561;28;20282;-79
2023/05/16 11:18:09;;;;;;;4.67;4.10;;;12.90;99.90;;;;;;5035567;28;20173;-78
2023/05/16 11:20:37;;;;;;;4.47;4.07;;;13.00;99.90;;;;;;5035468;28;20184;-78
2023/05/16 11:23:17;;;;;;;4.30;3.90;;;13.20;99.90;;;;;;5035549;28;20173;-79
2023/05/16 11:25:49;;;;;;;8.60;3.90;;;13.20;99.90;;;;;;5035032;28;20620;-78
2023/05/16 11:28:18;;;;;;;3.90;3.60;;;13.30;99.90;;;;;;5033971;28;20183;-79
2023/05/16 11:30:46;;;;;;;4.00;3.70;;;13.30;99.90;;;;;;5035674;28;20710;-79
2023/05/16 11:33:12;;;;;;;3.30;3.10;;;13.30;99.90;;;;;;5037659;28;20513;-78
2023/05/16 11:35:38;;;;;;;3.60;3.40;;;13.30;99.90;;;;;;5034969;28;20640;-78
2023/05/16 11:38:03;;;;;;;3.50;3.30;;;13.20;99.90;;;;;;5033800;28;20233;-78
2023/05/16 11:40:29;;;;;;;3.70;3.50;;;13.20;99.90;;;;;;5034744;28;20184;-79
2023/05/16 11:42:59;;;;;;;4.17;3.87;;;13.20;99.90;;;;;;5035133;28;20182;-78
2023/05/16 11:45:25;;;;;;;3.37;3.17;;;13.00;99.90;;;;;;5033778;28;20644;-77
2023/05/16 11:47:51;;;;;;;3.77;3.47;;;13.10;99.90;;;;;;5036113;28;20187;-77
2023/05/16 11:50:19;;;;;;;3.40;3.20;;;13.00;99.90;;;;;;5035165;28;20268;-77
2023/05/16 11:52:47;;;;;;;3.60;3.40;;;12.90;99.90;;;;;;5035746;28;20183;-78
2023/05/16 11:55:14;;;;;;;3.40;3.20;;;12.90;99.90;;;;;;5036858;28;20171;-77
2023/05/16 11:57:41;;;;;;;3.27;3.07;;;12.90;99.90;;;;;;5040805;28;20187;-77
2023/05/16 12:00:15;;;;;;;3.07;2.87;;;13.00;99.90;;;;;;5048923;28;20219;-79
2023/05/16 12:02:41;;;;;;;4.03;3.33;;;12.90;99.90;;;;;;5045196;28;20238;-78
2023/05/16 12:05:10;;;;;;;4.37;3.27;;;13.00;99.90;;;;;;5039111;28;20176;-78
2023/05/16 12:07:39;;;;;;;3.20;3.00;;;13.00;99.90;;;;;;5036389;28;20310;-78
2023/05/16 12:10:11;;;;;;;2.70;2.60;;;13.00;99.90;;;;;;5035400;28;20231;-78
2023/05/16 12:12:39;;;;;;;2.60;2.50;;;13.00;99.90;;;;;;5034647;28;20690;-78
2023/05/16 12:15:10;;;;;;;2.80;2.70;;;13.00;99.90;;;;;;5037023;28;20169;-80
2023/05/16 12:17:39;;;;;;;3.37;2.80;;;12.90;99.90;;;;;;5037328;28;20224;-79
2023/05/16 12:20:06;;;;;;;2.67;2.57;;;12.80;99.90;;;;;;5035345;28;20253;-77
2023/05/16 12:22:33;;;;;;;2.70;2.60;;;12.90;99.90;;;;;;5034313;28;20165;-78
2023/05/16 12:24:59;;;;;;;2.30;2.20;;;12.90;99.90;;;;;;5034442;28;20628;-80
2023/05/16 12:27:26;;;;;;;2.37;2.27;;;12.90;99.90;;;;;;5034621;28;20181;-79
2023/05/16 12:29:52;;;;;;;2.47;2.37;;;12.90;99.90;;;;;;5034724;28;20602;-78
2023/05/16 12:32:21;;;;;;;2.23;2.13;;;12.80;99.90;;;;;;5034142;28;20258;-79
2023/05/16 12:34:51;;;;;;;2.23;2.13;;;12.80;99.90;;;;;;5034332;28;20176;-78
2023/05/16 12:37:17;;;;;;;2.37;2.27;;;12.80;99.90;;;;;;5034028;28;20199;-80
2023/05/16 12:39:45;;;;;;;6.10;2.20;;;12.80;99.90;;;;;;5032412;28;20216;-79
2023/05/16 12:42:12;;;;;;;2.63;2.53;;;12.80;99.90;;;;;;5033778;28;20181;-78
2023/05/16 12:44:39;;;;;;;2.30;2.20;;;12.80;99.90;;;;;;5033673;28;20182;-78
2023/05/16 12:47:11;;;;;;;2.10;2.00;;;12.80;99.90;;;;;;5033470;28;20226;-79